Time;durP1;ratioP1;P1;durP2;ratioP2;P2;SDS_P1;SDS_P2;PMS_P1;PMS_P2;Temp;Humidity;BMP_temperature;BMP_pressure;BME280_temperature;BME280_humidity;BME280_pressure;Samples;Min_cycle;Max_cycle;Signal;HPM_P1;HPM_P2
2022/11/04 00:01:31;;;;;;;;;4.33;2.00;;;;;12.81;65.77;99894.88;5052096;28;45490;-64
2022/11/04 00:03:57;;;;;;;;;2.33;1.00;;;;;12.82;65.05;99888.63;5051901;28;46276;-64
2022/11/04 00:06:23;;;;;;;;;1.67;1.67;;;;;12.80;66.01;99874.31;5044294;28;45692;-65
2022/11/04 00:08:52;;;;;;;;;7.67;5.00;;;;;12.79;65.49;99864.50;5037148;28;45891;-64
2022/11/04 00:14:16;;;;;;;;;1.00;1.00;;;;;12.80;66.32;99852.88;5027544;28;45554;-64
2022/11/04 00:19:26;;;;;;;;;2.00;1.00;;;;;12.77;67.17;99853.78;5060475;28;45488;-65
2022/11/04 00:29:53;;;;;;;;;2.00;1.00;;;;;12.78;66.85;99847.50;5056107;28;44953;-65
2022/11/04 00:35:03;;;;;;;;;1.33;1.00;;;;;12.66;66.79;99843.00;5049379;28;45806;-66
2022/11/04 00:37:29;;;;;;;;;1.00;1.00;;;;;12.69;66.38;99853.75;5048644;28;45328;-65
2022/11/04 00:39:54;;;;;;;;;5.00;1.00;;;;;12.56;67.31;99835.84;5047624;28;51811;-65
2022/11/04 00:42:19;;;;;;;;;3.00;1.33;;;;;12.65;67.22;99848.38;5052672;28;45091;-66
2022/11/04 00:44:44;;;;;;;;;1.67;0.67;;;;;12.68;67.34;99853.75;5041322;28;46573;-65
2022/11/04 00:47:10;;;;;;;;;1.00;1.00;;;;;12.62;67.02;99848.34;5060342;28;45221;-63
2022/11/04 00:49:35;;;;;;;;;1.00;1.00;;;;;12.62;66.90;99843.00;5052653;28;55517;-65
2022/11/04 00:52:00;;;;;;;;;4.00;1.00;;;;;12.69;67.23;99850.19;5052406;28;44985;-64
2022/11/04 00:54:26;;;;;;;;;3.00;1.00;;;;;12.68;67.29;99846.59;5052050;28;45813;-64
2022/11/04 00:56:52;;;;;;;;;2.00;1.00;;;;;12.69;67.53;99844.81;5052727;28;61001;-65
2022/11/04 00:59:18;;;;;;;;;3.67;1.00;;;;;12.66;66.38;99834.97;5053272;28;45135;-65
2022/11/04 01:01:43;;;;;;;;;2.67;2.00;;;;;12.67;67.97;99839.44;5053509;28;45028;-64
2022/11/04 01:04:09;;;;;;;;;1.00;0.00;;;;;12.62;67.28;99822.47;5053231;28;45533;-65
2022/11/04 01:06:34;;;;;;;;;1.00;1.00;;;;;12.71;67.00;99816.22;5053090;28;45089;-64
2022/11/04 01:09:03;;;;;;;;;1.00;1.00;;;;;12.72;66.76;99810.88;5052485;28;45225;-65
2022/11/04 01:11:29;;;;;;;;;4.33;1.00;;;;;12.78;67.17;99811.78;5050275;28;45710;-64
2022/11/04 01:13:55;;;;;;;;;4.67;1.67;;;;;12.78;66.68;99809.97;5054785;28;46079;-64
2022/11/04 01:16:21;;;;;;;;;1.67;1.00;;;;;12.75;66.86;99793.88;5060926;28;51947;-65
2022/11/04 01:18:46;;;;;;;;;1.00;1.00;;;;;12.74;67.08;99813.56;5051725;28;45282;-64
2022/11/04 01:21:13;;;;;;;;;3.00;3.00;;;;;12.77;67.36;99808.22;5058614;28;45414;-64
2022/11/04 01:23:40;;;;;;;;;3.00;1.00;;;;;12.73;68.28;99811.75;5053214;28;45393;-65
2022/11/04 01:26:08;;;;;;;;;2.00;1.00;;;;;12.76;68.06;99813.56;5059809;28;44997;-65
2022/11/04 01:28:33;;;;;;;;;1.00;1.00;;;;;12.70;68.19;99799.28;5056114;28;45193;-65
2022/11/04 01:31:03;;;;;;;;;3.33;1.33;;;;;12.75;68.20;99801.94;5056167;28;45632;-64
2022/11/04 01:33:29;;;;;;;;;4.00;1.00;;;;;12.77;68.52;99804.63;5057358;28;45749;-65
2022/11/04 01:35:58;;;;;;;;;2.00;2.00;;;;;12.68;68.28;99795.66;5052583;28;44879;-64
2022/11/04 01:38:23;;;;;;;;;7.00;2.33;;;;;12.77;67.92;99801.94;5052299;28;45442;-64
2022/11/04 01:40:49;;;;;;;;;1.00;1.00;;;;;12.63;68.84;99780.47;5058403;28;45112;-67
2022/11/04 01:43:18;;;;;;;;;1.00;1.00;;;;;12.60;67.54;99772.44;5043666;28;46879;-64
2022/11/04 01:45:52;;;;;;;;;3.33;1.00;;;;;12.69;68.24;99786.75;5067226;28;45097;-64
2022/11/04 01:48:37;;;;;;;;;4.67;1.67;;;;;12.68;68.79;99790.31;5056487;28;44938;-64
2022/11/04 01:51:04;;;;;;;;;2.00;1.00;;;;;12.66;67.91;99785.84;5053979;28;45459;-65
2022/11/04 01:53:34;;;;;;;;;2.00;1.00;;;;;12.61;68.21;99780.47;5052338;28;45728;-63
2022/11/04 01:56:10;;;;;;;;;2.00;0.00;;;;;12.54;68.14;99774.19;5057127;28;45154;-64
2022/11/04 01:58:46;;;;;;;;;0.00;0.00;;;;;12.56;67.04;99759.94;5058346;28;45473;-63
2022/11/04 02:01:12;;;;;;;;;1.00;0.00;;;;;12.45;67.40;99754.53;5052345;28;45094;-63
2022/11/04 02:03:46;;;;;;;;;2.00;0.33;;;;;12.47;67.82;99769.72;5060004;28;45212;-65
2022/11/04 02:06:11;;;;;;;;;0.00;0.00;;;;;12.47;67.81;99761.69;5059172;28;45496;-63
2022/11/04 02:08:38;;;;;;;;;3.00;0.00;;;;;12.43;68.32;99746.50;5052394;28;45513;-64
2022/11/04 02:11:03;;;;;;;;;1.33;1.33;;;;;12.35;67.27;99733.06;5052444;28;45045;-65
2022/11/04 02:13:31;;;;;;;;;1.33;1.00;;;;;12.42;67.92;99755.41;5051203;28;45059;-65
2022/11/04 02:16:12;;;;;;;;;1.33;0.67;;;;;12.50;68.25;99782.22;5040844;28;45607;-65
2022/11/04 02:18:59;;;;;;;;;1.00;1.00;;;;;12.48;67.44;99775.97;5040863;28;45430;-63
2022/11/04 02:22:04;;;;;;;;;3.67;0.00;;;;;12.49;67.58;99761.69;5041558;28;45612;-63
2022/11/04 02:25:06;;;;;;;;;0.33;0.33;;;;;12.48;67.55;99746.50;5014006;28;45511;-63
2022/11/04 02:27:43;;;;;;;;;5.00;1.00;;;;;12.42;67.33;99760.75;5050694;28;45585;-64
2022/11/04 02:30:18;;;;;;;;;0.00;0.00;;;;;12.47;67.51;99759.00;5039409;28;45620;-64
2022/11/04 02:32:56;;;;;;;;;2.00;1.00;;;;;12.49;67.07;99762.59;5035692;28;45844;-64
2022/11/04 02:35:27;;;;;;;;;2.00;0.00;;;;;12.52;67.43;99764.34;5039761;28;46313;-64
2022/11/04 02:38:10;;;;;;;;;0.33;0.33;;;;;12.52;67.35;99772.41;5035796;28;45460;-64
2022/11/04 02:40:55;;;;;;;;;3.00;1.00;;;;;12.52;67.79;99772.41;5038924;28;45554;-63
2022/11/04 02:43:34;;;;;;;;;2.00;0.00;;;;;12.53;68.08;99766.16;5036826;28;45359;-65
2022/11/04 02:46:13;;;;;;;;;1.00;1.00;;;;;12.53;68.17;99761.69;5050782;28;45347;-64
2022/11/04 02:48:46;;;;;;;;;1.00;1.00;;;;;12.51;67.87;99755.44;5041545;28;45381;-64
2022/11/04 02:51:38;;;;;;;;;2.00;0.33;;;;;12.56;67.72;99750.09;5035470;28;45354;-66
2022/11/04 02:54:10;;;;;;;;;0.33;0.00;;;;;12.46;67.78;99737.59;5036003;28;45629;-64
2022/11/04 02:56:42;;;;;;;;;0.00;0.00;;;;;12.55;67.72;99742.94;5038271;28;45523;-65
2022/11/04 02:59:17;;;;;;;;;2.00;0.33;;;;;12.49;67.13;99724.19;5035053;28;45395;-66
2022/11/04 03:01:46;;;;;;;;;1.00;1.00;;;;;12.56;66.69;99741.19;5039242;28;45639;-64
2022/11/04 03:04:23;;;;;;;;;1.67;0.33;;;;;12.61;67.44;99740.28;5047202;28;45297;-64
2022/11/04 03:06:50;;;;;;;;;0.33;0.33;;;;;12.63;66.65;99738.50;5034415;28;46429;-64
2022/11/04 03:09:19;;;;;;;;;1.00;1.00;;;;;12.62;67.42;99739.41;5035722;28;45427;-65
2022/11/04 03:11:51;;;;;;;;;1.67;0.00;;;;;12.63;67.05;99746.53;5040037;28;45652;-63
2022/11/04 03:14:25;;;;;;;;;1.00;1.00;;;;;12.65;67.17;99735.81;5035471;28;45560;-63
2022/11/04 03:16:59;;;;;;;;;2.00;2.00;;;;;12.63;67.25;99734.94;5034231;28;45398;-64
2022/11/04 03:19:37;;;;;;;;;1.00;1.00;;;;;12.57;67.78;99722.38;5034085;28;45371;-64
2022/11/04 03:22:07;;;;;;;;;0.00;0.00;;;;;12.60;66.98;99718.84;5049458;28;45192;-64
2022/11/04 03:24:33;;;;;;;;;0.00;0.00;;;;;12.64;66.70;99718.84;5050595;28;45153;-64
2022/11/04 03:27:03;;;;;;;;;3.00;0.00;;;;;12.65;67.11;99719.72;5051519;28;45694;-65
2022/11/04 03:29:38;;;;;;;;;2.67;1.00;;;;;12.67;67.44;99716.19;5051111;28;45235;-65
2022/11/04 03:32:25;;;;;;;;;0.00;0.00;;;;;12.70;67.43;99723.31;5053033;28;45079;-64
2022/11/04 03:34:51;;;;;;;;;2.00;1.00;;;;;12.73;67.17;99720.63;5052515;28;45107;-66
2022/11/04 03:37:17;;;;;;;;;0.67;0.67;;;;;12.75;67.52;99726.88;5059615;28;46248;-64
2022/11/04 03:39:42;;;;;;;;;1.00;1.00;;;;;12.82;66.88;99717.97;5054111;28;45309;-65
2022/11/04 03:42:20;;;;;;;;;0.33;0.33;;;;;12.82;65.99;99712.63;5049932;28;45891;-65
2022/11/04 03:44:48;;;;;;;;;2.33;1.00;;;;;12.84;65.69;99707.25;5060582;28;45198;-64
2022/11/04 03:47:16;;;;;;;;;2.67;0.00;;;;;12.83;65.86;99709.03;5055541;28;46267;-65
2022/11/04 03:49:43;;;;;;;;;3.00;0.00;;;;;12.83;65.62;99703.66;5057760;28;45104;-65
2022/11/04 03:52:08;;;;;;;;;0.33;0.33;;;;;12.85;65.31;99706.34;5050767;28;44910;-65
2022/11/04 03:54:37;;;;;;;;;0.67;0.67;;;;;12.80;66.37;99703.69;5053716;28;45081;-64
2022/11/04 03:57:14;;;;;;;;;1.00;0.00;;;;;12.78;65.37;99699.19;5045959;28;46108;-64
2022/11/04 04:00:05;;;;;;;;;1.00;0.00;;;;;12.75;65.58;99710.81;5046243;28;45203;-65
2022/11/04 04:02:39;;;;;;;;;1.67;0.67;;;;;12.71;65.72;99704.56;5048969;28;45390;-65
2022/11/04 04:05:15;;;;;;;;;2.00;1.00;;;;;12.72;66.00;99706.34;5047299;28;45018;-65
2022/11/04 04:07:45;;;;;;;;;2.33;0.00;;;;;12.75;65.49;99707.25;5049841;28;45350;-65
2022/11/04 04:10:39;;;;;;;;;2.00;0.00;;;;;12.77;66.57;99726.88;5059115;28;45092;-64
2022/11/04 04:13:22;;;;;;;;;0.00;0.00;;;;;12.80;66.32;99725.13;5021384;28;45026;-64
2022/11/04 04:16:03;;;;;;;;;2.00;0.00;;;;;12.70;65.96;99702.78;5059304;28;45110;-64
2022/11/04 04:18:46;;;;;;;;;3.00;2.00;;;;;12.80;65.97;99721.53;5052484;28;45677;-64
2022/11/04 04:21:17;;;;;;;;;0.33;0.33;;;;;12.76;66.10;99707.25;5054358;28;45147;-63
2022/11/04 04:29:17;;;;;;;;;6.00;0.00;;;;;12.54;65.38;99680.44;5057073;28;45191;-64
2022/11/04 04:31:48;;;;;;;;;0.00;0.00;;;;;12.89;65.75;99733.16;5051393;28;45206;-64
2022/11/04 04:34:22;;;;;;;;;1.00;1.00;;;;;12.91;65.02;99743.88;5060946;28;45226;-65
2022/11/04 04:36:53;;;;;;;;;2.00;0.00;;;;;12.78;65.64;99715.28;5050110;28;45159;-65
2022/11/04 04:45:03;;;;;;;;;1.00;0.00;;;;;12.94;65.65;99735.84;5054287;28;45028;-66
2022/11/04 04:47:40;;;;;;;;;0.00;0.00;;;;;12.96;65.54;99735.84;5056726;28;45055;-64
2022/11/04 04:50:07;;;;;;;;;1.00;1.00;;;;;12.99;64.97;99735.84;5058367;28;45397;-63
2022/11/04 04:52:37;;;;;;;;;2.00;0.00;;;;;12.98;65.23;99729.56;5049059;28;44971;-65
2022/11/04 04:55:03;;;;;;;;;4.00;0.00;;;;;12.97;64.43;99742.97;5048689;28;45216;-63
2022/11/04 04:57:28;;;;;;;;;0.00;0.00;;;;;12.93;64.53;99736.72;5050684;28;45123;-64
2022/11/04 04:59:54;;;;;;;;;0.00;0.00;;;;;12.87;64.44;99731.38;5047884;28;68591;-64
2022/11/04 05:02:19;;;;;;;;;1.67;0.00;;;;;12.87;65.78;99739.44;5049837;28;45234;-63
2022/11/04 05:04:44;;;;;;;;;0.00;0.00;;;;;12.84;65.63;99742.09;5050552;28;45546;-64
2022/11/04 05:07:10;;;;;;;;;0.00;0.00;;;;;12.82;65.28;99735.81;5052956;28;44994;-65
2022/11/04 05:09:35;;;;;;;;;0.67;0.67;;;;;12.83;64.69;99740.31;5052565;28;45500;-64
2022/11/04 05:12:02;;;;;;;;;0.00;0.00;;;;;12.81;65.85;99737.63;5047638;28;45179;-64
2022/11/04 05:14:28;;;;;;;;;5.33;3.67;;;;;12.82;64.70;99747.47;5060971;28;45056;-65
2022/11/04 05:16:53;;;;;;;;;3.67;0.00;;;;;12.82;65.35;99736.75;5055623;28;44938;-64
2022/11/04 05:19:19;;;;;;;;;0.00;0.00;;;;;12.83;64.99;99745.66;5051389;28;46320;-65
2022/11/04 05:21:44;;;;;;;;;2.67;0.33;;;;;12.78;65.67;99731.38;5051135;28;48532;-64
2022/11/04 05:24:09;;;;;;;;;2.00;0.33;;;;;12.64;64.83;99726.00;5051533;28;54897;-63
2022/11/04 05:26:35;;;;;;;;;4.00;0.00;;;;;12.75;65.21;99742.97;5048327;28;45420;-65
2022/11/04 05:29:00;;;;;;;;;0.00;0.00;;;;;12.75;64.89;99742.97;5050700;28;53828;-64
2022/11/04 05:31:26;;;;;;;;;3.00;0.00;;;;;12.79;65.27;99743.88;5065062;28;45071;-64
2022/11/04 05:33:52;;;;;;;;;0.00;0.00;;;;;12.68;65.31;99720.63;5063750;28;45151;-64
2022/11/04 05:36:17;;;;;;;;;4.33;1.67;;;;;12.70;65.21;99737.63;5057820;28;45013;-66
2022/11/04 05:38:48;;;;;;;;;5.00;3.00;;;;;12.81;65.82;99752.81;5055841;28;45624;-63
2022/11/04 05:41:24;;;;;;;;;0.67;0.67;;;;;12.78;64.89;99740.28;5054769;28;45144;-64
2022/11/04 05:43:50;;;;;;;;;3.00;0.00;;;;;12.84;65.46;99750.16;5058099;28;45123;-64
2022/11/04 05:46:16;;;;;;;;;1.00;1.00;;;;;12.85;64.90;99749.22;5068773;28;44866;-64
2022/11/04 05:48:41;;;;;;;;;1.00;1.00;;;;;12.88;65.13;99752.81;5058597;28;56075;-64
2022/11/04 05:51:06;;;;;;;;;0.67;0.67;;;;;12.89;65.08;99754.59;5057141;28;54747;-65
2022/11/04 05:53:32;;;;;;;;;0.00;0.00;;;;;12.90;65.24;99764.44;5050175;28;45158;-64
2022/11/04 05:55:57;;;;;;;;;1.33;0.67;;;;;12.87;64.65;99763.56;5058879;28;46800;-65
2022/11/04 05:58:22;;;;;;;;;0.33;0.33;;;;;12.84;65.01;99767.13;5054015;28;46289;-64
2022/11/04 06:00:47;;;;;;;;;1.00;1.00;;;;;12.83;64.50;99764.44;5053810;28;57976;-64
2022/11/04 06:03:13;;;;;;;;;2.67;1.00;;;;;12.84;66.12;99777.84;5056606;28;44976;-64
2022/11/04 06:05:38;;;;;;;;;3.67;1.00;;;;;12.86;64.76;99776.03;5058422;28;53509;-64
2022/11/04 06:08:03;;;;;;;;;0.67;0.00;;;;;12.81;65.54;99776.94;5050747;28;63287;-64
2022/11/04 06:10:29;;;;;;;;;1.00;0.00;;;;;12.80;65.38;99775.16;5051299;28;45084;-64
2022/11/04 06:12:54;;;;;;;;;2.00;0.00;;;;;12.77;65.27;99773.38;5052847;28;45033;-65
2022/11/04 06:15:19;;;;;;;;;2.00;0.33;;;;;12.77;65.70;99775.13;5051434;28;53239;-64
2022/11/04 06:17:45;;;;;;;;;3.00;3.00;;;;;12.78;65.01;99783.19;5057563;28;45359;-64
2022/11/04 06:20:10;;;;;;;;;2.67;1.33;;;;;12.81;65.13;99787.66;5043025;28;45215;-64
2022/11/04 06:22:35;;;;;;;;;3.00;2.00;;;;;12.81;64.71;99790.34;5062673;28;45279;-64
2022/11/04 06:25:01;;;;;;;;;2.33;2.33;;;;;12.71;64.47;99782.28;5058098;28;45112;-64
2022/11/04 06:27:26;;;;;;;;;2.00;0.33;;;;;12.78;65.30;99801.06;5055897;28;47131;-65
2022/11/04 06:29:52;;;;;;;;;1.33;1.33;;;;;12.79;64.46;99801.06;5059253;28;45002;-65
2022/11/04 06:32:18;;;;;;;;;1.00;1.00;;;;;12.81;64.34;99801.06;5059065;28;45063;-65
2022/11/04 06:34:44;;;;;;;;;1.33;0.00;;;;;12.53;65.73;99753.66;5056873;28;45402;-66
2022/11/04 06:37:09;;;;;;;;;0.33;0.33;;;;;12.81;65.08;99790.34;5052129;28;45041;-64
2022/11/04 06:39:35;;;;;;;;;5.00;2.00;;;;;12.78;65.08;99799.25;5059135;28;44932;-67
2022/11/04 06:42:01;;;;;;;;;2.67;0.00;;;;;12.79;65.16;99802.84;5052410;28;45222;-65
2022/11/04 06:44:27;;;;;;;;;1.00;1.00;;;;;12.70;64.49;99782.28;5056725;28;44857;-65
2022/11/04 06:46:53;;;;;;;;;2.67;1.00;;;;;12.82;65.47;99797.47;5064673;28;45496;-66
2022/11/04 06:49:20;;;;;;;;;2.00;1.00;;;;;12.88;65.04;99810.91;5062578;28;44972;-65
2022/11/04 06:51:47;;;;;;;;;1.67;1.00;;;;;12.89;64.72;99808.22;5053864;28;45154;-64
2022/11/04 06:54:13;;;;;;;;;1.00;1.00;;;;;12.77;64.63;99784.09;5056265;28;45077;-65
2022/11/04 06:56:39;;;;;;;;;2.00;1.00;;;;;12.90;64.87;99817.16;5052784;28;46209;-64
2022/11/04 06:59:06;;;;;;;;;2.00;2.00;;;;;12.90;65.12;99823.44;5053510;28;45112;-64
2022/11/04 07:01:33;;;;;;;;;2.00;1.00;;;;;12.91;64.80;99816.28;5053374;28;46088;-65
2022/11/04 07:04:00;;;;;;;;;1.00;0.67;;;;;12.90;64.96;99814.47;5053671;28;45189;-64
2022/11/04 07:06:27;;;;;;;;;3.67;3.67;;;;;12.83;64.45;99807.31;5060746;28;44983;-65
2022/11/04 07:08:55;;;;;;;;;1.33;1.33;;;;;12.93;64.11;99818.94;5050828;28;45051;-63
2022/11/04 07:11:21;;;;;;;;;1.00;1.00;;;;;12.94;64.64;99826.13;5046101;28;44969;-65
2022/11/04 07:13:47;;;;;;;;;1.67;0.33;;;;;12.94;64.23;99835.03;5051015;28;45240;-65
2022/11/04 07:16:13;;;;;;;;;3.00;1.00;;;;;12.87;63.99;99823.41;5054692;28;46021;-65
2022/11/04 07:18:38;;;;;;;;;1.00;1.00;;;;;12.96;64.99;99840.41;5049373;28;49164;-63
2022/11/04 07:21:05;;;;;;;;;1.00;1.00;;;;;12.91;65.03;99832.34;5053589;28;45125;-64
2022/11/04 07:23:31;;;;;;;;;2.00;0.00;;;;;12.96;65.14;99854.72;5050431;28;44907;-66
2022/11/04 07:26:01;;;;;;;;;1.33;1.33;;;;;12.94;64.75;99847.56;5049838;28;45492;-66
2022/11/04 07:28:27;;;;;;;;;1.00;1.00;;;;;12.99;64.47;99856.50;5049746;28;45292;-65
2022/11/04 07:30:55;;;;;;;;;5.00;1.33;;;;;12.90;63.77;99843.97;5049844;28;45012;-66
2022/11/04 07:33:20;;;;;;;;;1.67;1.00;;;;;12.90;63.93;99847.56;5050521;28;45214;-65
2022/11/04 07:35:46;;;;;;;;;1.67;1.67;;;;;12.90;63.90;99855.59;5060204;28;45231;-65
2022/11/04 07:38:11;;;;;;;;;1.00;1.00;;;;;12.96;64.81;99875.28;5058367;28;45480;-66
2022/11/04 07:40:38;;;;;;;;;4.67;3.33;;;;;13.01;64.53;99877.06;5054180;28;45101;-66
2022/11/04 07:43:03;;;;;;;;;3.00;0.67;;;;;12.98;64.71;99869.00;5053085;28;45080;-65
2022/11/04 07:45:29;;;;;;;;;3.00;1.67;;;;;13.07;64.55;99884.25;5049544;28;45688;-68
2022/11/04 07:47:54;;;;;;;;;3.33;2.00;;;;;12.90;64.13;99869.00;5050708;28;45097;-67
2022/11/04 07:50:20;;;;;;;;;3.33;3.00;;;;;13.05;64.31;99892.28;5053329;28;47007;-65
2022/11/04 07:52:45;;;;;;;;;2.00;2.00;;;;;13.00;63.62;99887.78;5050641;28;45195;-65
2022/11/04 07:55:12;;;;;;;;;1.00;1.00;;;;;12.97;64.51;99886.00;5055823;28;45378;-66
2022/11/04 07:57:38;;;;;;;;;7.67;5.33;;;;;13.01;64.10;99892.25;5056406;28;45207;-65
2022/11/04 08:00:07;;;;;;;;;0.67;0.67;;;;;13.01;64.43;99909.22;5049321;28;45562;-63
2022/11/04 08:02:32;;;;;;;;;2.00;2.00;;;;;13.04;63.71;99906.56;5051131;28;45962;-64
2022/11/04 08:04:58;;;;;;;;;1.33;0.67;;;;;13.11;64.03;99918.19;5050741;28;45207;-64
2022/11/04 08:07:23;;;;;;;;;5.00;2.00;;;;;13.16;64.13;99923.59;5049560;28;44915;-64
2022/11/04 08:09:48;;;;;;;;;5.00;3.67;;;;;13.11;63.49;99914.63;5060325;28;45427;-65
2022/11/04 08:12:14;;;;;;;;;2.00;2.00;;;;;13.20;63.28;99934.31;5051581;28;45434;-65
2022/11/04 08:14:39;;;;;;;;;5.33;2.00;;;;;13.18;62.59;99929.84;5044097;28;46403;-66
2022/11/04 08:17:05;;;;;;;;;3.00;1.67;;;;;13.18;62.68;99945.94;5049283;28;45358;-64
2022/11/04 08:19:30;;;;;;;;;4.00;4.00;;;;;13.18;62.93;99943.25;5055755;28;46870;-64
2022/11/04 08:21:55;;;;;;;;;4.33;3.00;;;;;13.24;63.15;99943.28;5054449;28;45107;-65
2022/11/04 08:24:21;;;;;;;;;7.00;3.67;;;;;13.32;63.22;99944.22;5051203;28;45578;-64
2022/11/04 08:26:46;;;;;;;;;5.00;1.00;;;;;13.35;62.40;99946.91;5051959;28;45168;-65
2022/11/04 08:29:11;;;;;;;;;3.33;2.00;;;;;13.40;62.71;99944.25;5041923;28;45192;-64
2022/11/04 08:31:37;;;;;;;;;2.00;0.67;;;;;13.51;62.71;99955.88;5063547;28;45118;-65
2022/11/04 08:34:04;;;;;;;;;3.33;2.00;;;;;13.52;61.76;99944.25;5063105;28;46205;-65
2022/11/04 08:36:33;;;;;;;;;4.00;3.33;;;;;13.63;61.86;99963.94;5049167;28;45614;-65
2022/11/04 08:38:58;;;;;;;;;3.00;0.67;;;;;13.60;61.36;99944.28;5053596;28;45984;-66
2022/11/04 08:41:28;;;;;;;;;2.67;2.00;;;;;13.72;61.10;99959.50;5053914;28;45584;-64
2022/11/04 08:43:55;;;;;;;;;8.00;3.00;;;;;13.71;61.46;99958.59;5050972;28;45352;-64
2022/11/04 08:46:21;;;;;;;;;4.00;2.33;;;;;13.74;61.47;99968.44;5069647;28;44997;-68
2022/11/04 08:48:48;;;;;;;;;2.33;1.00;;;;;13.76;60.49;99970.25;5045324;28;45414;-63
2022/11/04 08:51:21;;;;;;;;;2.00;1.00;;;;;13.81;60.69;99983.66;5035332;28;45733;-65
2022/11/04 08:53:46;;;;;;;;;1.00;1.00;;;;;13.77;60.91;99982.75;5030281;28;47370;-65
2022/11/04 08:56:22;;;;;;;;;3.67;3.00;;;;;13.83;60.31;99990.81;5027631;28;45485;-64
2022/11/04 08:58:48;;;;;;;;;0.67;0.67;;;;;13.86;60.02;99998.00;5047037;28;45439;-67
2022/11/04 09:01:14;;;;;;;;;2.67;1.33;;;;;13.81;60.08;100008.72;5042074;28;45275;-64
2022/11/04 09:03:40;;;;;;;;;1.00;1.00;;;;;13.85;59.85;100014.97;5038687;28;45679;-64
2022/11/04 09:06:09;;;;;;;;;6.00;2.00;;;;;13.91;60.17;100019.44;5037497;28;45340;-65
2022/11/04 09:08:37;;;;;;;;;1.00;1.00;;;;;13.87;59.73;100015.00;5037773;28;45651;-64
2022/11/04 09:11:06;;;;;;;;;1.33;0.33;;;;;13.80;59.62;100014.97;5050150;28;45576;-65
2022/11/04 09:13:31;;;;;;;;;1.33;1.00;;;;;13.73;59.60;100020.34;5033007;28;47247;-65
2022/11/04 09:15:56;;;;;;;;;1.00;1.00;;;;;13.75;60.38;100029.28;5045204;28;45201;-64
2022/11/04 09:18:22;;;;;;;;;3.67;2.00;;;;;13.79;59.89;100032.00;5039721;28;45882;-64
2022/11/04 09:20:47;;;;;;;;;1.00;1.00;;;;;13.89;59.80;100037.34;5040433;28;45281;-64
2022/11/04 09:23:12;;;;;;;;;7.00;7.00;;;;;13.94;60.01;100035.56;5041099;28;45515;-63
2022/11/04 09:25:38;;;;;;;;;7.33;2.67;;;;;14.06;59.34;100045.47;5036655;28;45508;-65
2022/11/04 09:28:03;;;;;;;;;2.00;1.00;;;;;14.13;59.23;100044.56;5036629;28;45411;-64
2022/11/04 09:30:29;;;;;;;;;12.33;8.00;;;;;14.18;59.58;100049.03;5036883;28;45475;-64
2022/11/04 09:32:54;;;;;;;;;13.67;9.00;;;;;14.23;59.34;100050.81;5036430;28;45515;-65
2022/11/04 09:35:20;;;;;;;;;15.00;9.67;;;;;14.30;58.32;100055.28;5037272;28;45500;-63
2022/11/04 09:37:45;;;;;;;;;29.75;23.00;;;;;14.33;58.16;100055.31;5021858;28;45521;-63
2022/11/04 09:40:17;;;;;;;;;5.33;1.67;;;;;14.30;58.28;100068.72;5047218;28;45489;-64
2022/11/04 09:43:01;;;;;;;;;14.00;12.50;;;;;14.34;58.50;100076.81;5051838;28;45298;-64
2022/11/04 09:45:30;;;;;;;;;7.67;3.00;;;;;14.35;57.98;100072.31;5047807;28;45501;-64
2022/11/04 09:48:02;;;;;;;;;6.67;3.67;;;;;14.35;58.23;100075.91;5046309;28;45524;-65
2022/11/04 09:50:42;;;;;;;;;3.33;3.33;;;;;14.31;58.11;100066.03;5036554;28;45422;-64
2022/11/04 09:53:20;;;;;;;;;6.33;6.33;;;;;14.41;57.67;100091.13;5038218;28;46045;-65
2022/11/04 09:56:01;;;;;;;;;13.50;11.50;;;;;14.34;58.01;100083.97;5037898;28;45353;-65
2022/11/04 09:58:32;;;;;;;;;3.00;3.00;;;;;14.36;57.62;100085.75;5036377;28;45333;-65
2022/11/04 10:01:13;;;;;;;;;2.00;2.00;;;;;14.40;57.76;100110.81;5049652;28;45441;-64
2022/11/04 10:03:39;;;;;;;;;2.00;2.00;;;;;14.41;57.98;100107.25;5028065;28;47380;-64
2022/11/04 10:06:41;;;;;;;;;1.00;1.00;;;;;14.44;57.52;100123.38;5041661;28;45379;-64
2022/11/04 10:09:25;;;;;;;;;3.00;1.67;;;;;14.10;56.68;100057.97;5046448;28;45539;-66
2022/11/04 10:12:28;;;;;;;;;5.00;2.00;;;;;14.37;56.88;100133.25;5035677;28;45598;-64
2022/11/04 10:15:15;;;;;;;;;10.67;9.67;;;;;14.35;56.73;100126.06;5052494;28;46320;-64
2022/11/04 10:17:55;;;;;;;;;3.67;3.67;;;;;14.41;56.37;100138.63;5025369;28;45368;-64
2022/11/04 10:20:39;;;;;;;;;5.67;2.00;;;;;14.43;56.59;100145.78;5031953;28;45163;-63
2022/11/04 10:23:04;;;;;;;;;1.00;1.00;;;;;14.47;56.53;100157.41;5033538;28;45377;-64
2022/11/04 10:25:46;;;;;;;;;1.67;1.00;;;;;14.43;56.46;100139.50;5018109;28;45272;-65
2022/11/04 10:28:16;;;;;;;;;1.00;0.00;;;;;14.51;56.22;100164.59;5016494;28;45380;-67
2022/11/04 10:30:46;;;;;;;;;3.00;1.67;;;;;14.54;56.62;100173.56;5016053;28;45429;-63
2022/11/04 10:33:31;;;;;;;;;2.67;2.00;;;;;14.62;56.23;100176.31;5017033;28;45388;-65
2022/11/04 10:36:01;;;;;;;;;4.33;1.00;;;;;14.67;55.87;100179.00;5030925;28;45444;-64
2022/11/04 10:38:35;;;;;;;;;1.00;1.00;;;;;14.69;55.89;100188.84;5027951;28;45315;-64
2022/11/04 10:41:01;;;;;;;;;7.33;1.67;;;;;14.73;55.65;100197.78;5026987;28;46637;-66
2022/11/04 10:43:36;;;;;;;;;4.00;2.00;;;;;14.71;54.90;100189.72;5015793;28;45390;-66
2022/11/04 10:46:27;;;;;;;;;8.00;3.67;;;;;14.82;54.94;100205.88;5035294;28;45532;-65
2022/11/04 10:49:18;;;;;;;;;5.00;2.00;;;;;14.91;54.63;100218.44;5030304;28;45105;-64
2022/11/04 10:51:44;;;;;;;;;3.00;0.00;;;;;14.92;54.18;100220.22;5021283;28;45497;-64
2022/11/04 10:54:10;;;;;;;;;2.33;2.33;;;;;14.93;54.35;100212.16;5020142;28;45446;-65
2022/11/04 10:56:46;;;;;;;;;3.67;3.67;;;;;15.03;54.07;100222.91;5038223;28;47112;-65
2022/11/04 10:59:23;;;;;;;;;2.00;2.00;;;;;15.13;54.38;100232.78;5013325;28;45605;-66
2022/11/04 11:01:51;;;;;;;;;8.00;6.00;;;;;15.21;54.14;100231.00;5024154;28;45712;-64
2022/11/04 11:04:30;;;;;;;;;13.00;11.00;;;;;15.32;53.59;100235.44;5030746;28;45560;-66
2022/11/04 11:06:58;;;;;;;;;3.33;3.33;;;;;15.40;53.85;100234.53;5020240;28;46054;-64
2022/11/04 11:09:36;;;;;;;;;3.00;1.67;;;;;15.47;53.35;100228.22;5015134;28;45539;-65
2022/11/04 11:12:05;;;;;;;;;2.33;2.00;;;;;15.60;52.81;100228.22;5026904;28;45236;-65
2022/11/04 11:14:36;;;;;;;;;4.33;3.00;;;;;15.56;52.78;100230.03;5014721;28;45508;-65
2022/11/04 11:17:13;;;;;;;;;2.33;1.00;;;;;15.62;52.79;100240.78;5014563;28;46078;-65
2022/11/04 11:19:49;;;;;;;;;0.67;0.33;;;;;15.47;52.20;100230.03;5041330;28;45371;-66
2022/11/04 11:22:35;;;;;;;;;5.67;1.67;;;;;15.50;52.72;100254.25;5037187;28;45564;-64
2022/11/04 11:25:23;;;;;;;;;5.33;3.67;;;;;15.57;53.10;100245.25;5034415;28;45583;-65
2022/11/04 11:28:08;;;;;;;;;2.33;0.67;;;;;15.65;52.70;100243.44;5037815;28;46083;-65
2022/11/04 11:30:52;;;;;;;;;1.67;1.67;;;;;15.90;52.48;100253.28;5034606;28;45315;-65
2022/11/04 11:33:27;;;;;;;;;14.67;11.67;;;;;15.96;52.12;100256.88;5034130;28;45499;-64
2022/11/04 11:35:58;;;;;;;;;8.33;7.00;;;;;15.97;51.74;100260.44;5034268;28;45624;-65
2022/11/04 11:38:29;;;;;;;;;5.67;5.67;;;;;16.03;51.20;100264.00;5039763;28;45503;-66
2022/11/04 11:41:10;;;;;;;;;2.00;2.00;;;;;16.05;50.64;100260.44;5047402;28;45462;-66
2022/11/04 11:43:41;;;;;;;;;4.67;2.00;;;;;16.12;51.20;100265.78;5038868;28;45405;-65
2022/11/04 11:46:07;;;;;;;;;4.00;3.00;;;;;16.15;50.72;100263.09;5048483;28;45529;-66
2022/11/04 11:48:42;;;;;;;;;8.67;4.33;;;;;16.18;50.83;100273.84;5033862;28;46380;-65
2022/11/04 11:51:14;;;;;;;;;2.00;1.00;;;;;16.10;50.73;100278.38;5033928;28;45337;-65
2022/11/04 11:53:57;;;;;;;;;25.33;19.67;;;;;16.04;51.35;100294.56;5034127;28;45466;-65
2022/11/04 11:56:31;;;;;;;;;2.00;1.00;;;;;15.92;52.22;100294.59;5023118;28;45408;-65
2022/11/04 11:59:08;;;;;;;;;11.33;7.00;;;;;15.89;51.83;100297.28;5039800;28;46006;-65
2022/11/04 12:01:50;;;;;;;;;14.67;10.67;;;;;15.84;52.58;100297.31;5032812;28;45855;-66
2022/11/04 12:04:18;;;;;;;;;12.33;10.00;;;;;15.97;52.91;100312.56;5046918;28;45279;-66
2022/11/04 12:07:04;;;;;;;;;4.00;2.33;;;;;15.97;53.04;100330.50;5027895;28;45500;-66
2022/11/04 12:09:48;;;;;;;;;9.67;9.00;;;;;15.95;54.09;100335.88;5033621;28;47312;-65
2022/11/04 12:12:26;;;;;;;;;25.33;20.33;;;;;15.98;54.37;100333.19;5039332;28;45466;-67
2022/11/04 12:15:08;;;;;;;;;10.00;9.67;;;;;15.99;54.89;100340.38;5034347;28;45459;-65